sensor_id;sensor_type;location;lat;lon;timestamp;P1;durP1;ratioP1;P2;durP2;ratioP2
50569;SDS011;36525;49.398;7.614;2023-02-23T00:02:05;38.63;;;27.80;;
50569;SDS011;36525;49.398;7.614;2023-02-23T00:04:33;40.03;;;26.60;;
50569;SDS011;36525;49.398;7.614;2023-02-23T00:07:01;46.30;;;29.35;;
50569;SDS011;36525;49.398;7.614;2023-02-23T00:09:29;34.13;;;25.83;;
50569;SDS011;36525;49.398;7.614;2023-02-23T00:12:01;36.72;;;26.25;;
50569;SDS011;36525;49.398;7.614;2023-02-23T00:14:34;38.53;;;26.33;;
50569;SDS011;36525;49.398;7.614;2023-02-23T00:17:03;35.67;;;25.80;;
50569;SDS011;36525;49.398;7.614;2023-02-23T00:19:40;35.95;;;25.42;;
50569;SDS011;36525;49.398;7.614;2023-02-23T00:22:09;36.75;;;25.33;;
50569;SDS011;36525;49.398;7.614;2023-02-23T00:24:37;37.60;;;25.30;;
50569;SDS011;36525;49.398;7.614;2023-02-23T00:27:05;35.97;;;25.58;;
50569;SDS011;36525;49.398;7.614;2023-02-23T00:29:32;42.05;;;26.88;;
50569;SDS011;36525;49.398;7.614;2023-02-23T00:32:04;39.60;;;23.83;;
50569;SDS011;36525;49.398;7.614;2023-02-23T00:34:32;41.72;;;26.42;;
50569;SDS011;36525;49.398;7.614;2023-02-23T00:37:00;39.05;;;27.23;;
50569;SDS011;36525;49.398;7.614;2023-02-23T00:39:27;34.95;;;24.17;;
50569;SDS011;36525;49.398;7.614;2023-02-23T00:41:55;31.33;;;22.35;;
50569;SDS011;36525;49.398;7.614;2023-02-23T00:44:28;36.80;;;22.40;;
50569;SDS011;36525;49.398;7.614;2023-02-23T00:46:55;36.17;;;24.05;;
50569;SDS011;36525;49.398;7.614;2023-02-23T00:49:22;31.83;;;22.20;;
50569;SDS011;36525;49.398;7.614;2023-02-23T00:51:49;31.63;;;21.15;;
50569;SDS011;36525;49.398;7.614;2023-02-23T00:54:17;32.47;;;23.85;;
50569;SDS011;36525;49.398;7.614;2023-02-23T00:56:46;27.73;;;20.70;;
50569;SDS011;36525;49.398;7.614;2023-02-23T00:59:14;28.52;;;19.33;;
50569;SDS011;36525;49.398;7.614;2023-02-23T01:01:42;34.72;;;21.60;;
50569;SDS011;36525;49.398;7.614;2023-02-23T01:04:11;30.02;;;20.63;;
50569;SDS011;36525;49.398;7.614;2023-02-23T01:06:39;34.45;;;20.83;;
50569;SDS011;36525;49.398;7.614;2023-02-23T01:09:08;34.63;;;23.48;;
50569;SDS011;36525;49.398;7.614;2023-02-23T01:11:39;40.25;;;24.67;;
50569;SDS011;36525;49.398;7.614;2023-02-23T01:14:07;38.17;;;25.52;;
50569;SDS011;36525;49.398;7.614;2023-02-23T01:16:35;35.25;;;23.77;;
50569;SDS011;36525;49.398;7.614;2023-02-23T01:19:04;40.47;;;24.85;;
50569;SDS011;36525;49.398;7.614;2023-02-23T01:21:33;43.22;;;27.45;;
50569;SDS011;36525;49.398;7.614;2023-02-23T01:24:03;36.65;;;24.83;;
50569;SDS011;36525;49.398;7.614;2023-02-23T01:26:32;37.40;;;25.52;;
50569;SDS011;36525;49.398;7.614;2023-02-23T01:29:05;39.92;;;25.05;;
50569;SDS011;36525;49.398;7.614;2023-02-23T01:31:39;41.55;;;27.25;;
50569;SDS011;36525;49.398;7.614;2023-02-23T01:34:13;38.45;;;23.92;;
50569;SDS011;36525;49.398;7.614;2023-02-23T01:36:41;35.75;;;23.33;;
50569;SDS011;36525;49.398;7.614;2023-02-23T01:39:10;36.30;;;21.92;;
50569;SDS011;36525;49.398;7.614;2023-02-23T01:41:41;38.28;;;25.88;;
50569;SDS011;36525;49.398;7.614;2023-02-23T01:46:40;40.65;;;25.73;;
50569;SDS011;36525;49.398;7.614;2023-02-23T01:49:15;30.55;;;21.23;;
50569;SDS011;36525;49.398;7.614;2023-02-23T01:51:51;41.33;;;26.80;;
50569;SDS011;36525;49.398;7.614;2023-02-23T01:54:26;32.42;;;23.20;;
50569;SDS011;36525;49.398;7.614;2023-02-23T01:57:01;37.08;;;24.10;;
50569;SDS011;36525;49.398;7.614;2023-02-23T01:59:40;40.42;;;26.60;;
50569;SDS011;36525;49.398;7.614;2023-02-23T02:02:17;38.42;;;23.80;;
50569;SDS011;36525;49.398;7.614;2023-02-23T02:04:48;41.70;;;25.92;;
50569;SDS011;36525;49.398;7.614;2023-02-23T02:07:21;40.47;;;26.00;;
50569;SDS011;36525;49.398;7.614;2023-02-23T02:09:52;46.50;;;28.13;;
50569;SDS011;36525;49.398;7.614;2023-02-23T02:12:43;40.38;;;26.58;;
50569;SDS011;36525;49.398;7.614;2023-02-23T02:15:18;41.92;;;27.48;;
50569;SDS011;36525;49.398;7.614;2023-02-23T02:17:55;42.92;;;25.65;;
50569;SDS011;36525;49.398;7.614;2023-02-23T02:21:01;47.97;;;28.95;;
50569;SDS011;36525;49.398;7.614;2023-02-23T02:26:16;55.28;;;30.10;;
50569;SDS011;36525;49.398;7.614;2023-02-23T02:32:10;47.22;;;25.50;;
50569;SDS011;36525;49.398;7.614;2023-02-23T02:37:54;51.00;;;28.20;;
50569;SDS011;36525;49.398;7.614;2023-02-23T02:41:01;63.58;;;32.10;;
50569;SDS011;36525;49.398;7.614;2023-02-23T02:43:59;58.72;;;28.55;;
50569;SDS011;36525;49.398;7.614;2023-02-23T02:46:46;64.57;;;30.42;;
50569;SDS011;36525;49.398;7.614;2023-02-23T02:53:08;43.08;;;26.27;;
50569;SDS011;36525;49.398;7.614;2023-02-23T02:55:38;39.03;;;24.23;;
50569;SDS011;36525;49.398;7.614;2023-02-23T02:58:09;42.63;;;26.85;;
50569;SDS011;36525;49.398;7.614;2023-02-23T03:00:39;44.67;;;26.40;;
50569;SDS011;36525;49.398;7.614;2023-02-23T03:06:26;38.38;;;23.63;;
50569;SDS011;36525;49.398;7.614;2023-02-23T03:09:41;53.65;;;28.48;;
50569;SDS011;36525;49.398;7.614;2023-02-23T03:12:54;46.45;;;27.30;;
50569;SDS011;36525;49.398;7.614;2023-02-23T03:19:26;85.32;;;36.22;;
50569;SDS011;36525;49.398;7.614;2023-02-23T03:22:20;48.30;;;24.77;;
50569;SDS011;36525;49.398;7.614;2023-02-23T03:25:15;94.57;;;36.00;;
50569;SDS011;36525;49.398;7.614;2023-02-23T03:28:37;57.47;;;30.60;;
50569;SDS011;36525;49.398;7.614;2023-02-23T03:32:25;66.25;;;31.15;;
50569;SDS011;36525;49.398;7.614;2023-02-23T03:41:38;92.70;;;35.08;;
50569;SDS011;36525;49.398;7.614;2023-02-23T03:44:30;108.80;;;37.78;;
50569;SDS011;36525;49.398;7.614;2023-02-23T03:47:20;114.25;;;40.58;;
50569;SDS011;36525;49.398;7.614;2023-02-23T03:50:14;94.35;;;35.80;;
50569;SDS011;36525;49.398;7.614;2023-02-23T03:53:07;117.03;;;37.88;;
50569;SDS011;36525;49.398;7.614;2023-02-23T03:55:56;116.38;;;36.08;;
50569;SDS011;36525;49.398;7.614;2023-02-23T03:58:44;82.40;;;32.15;;
50569;SDS011;36525;49.398;7.614;2023-02-23T04:01:35;145.15;;;45.15;;
50569;SDS011;36525;49.398;7.614;2023-02-23T04:04:22;158.73;;;46.60;;
50569;SDS011;36525;49.398;7.614;2023-02-23T04:07:12;243.98;;;51.15;;
50569;SDS011;36525;49.398;7.614;2023-02-23T04:10:01;217.13;;;50.45;;
50569;SDS011;36525;49.398;7.614;2023-02-23T04:13:06;171.45;;;42.90;;
50569;SDS011;36525;49.398;7.614;2023-02-23T04:15:45;258.40;;;54.10;;
50569;SDS011;36525;49.398;7.614;2023-02-23T04:18:14;180.80;;;40.67;;
50569;SDS011;36525;49.398;7.614;2023-02-23T04:20:45;392.63;;;65.03;;
50569;SDS011;36525;49.398;7.614;2023-02-23T04:23:12;321.15;;;56.58;;
50569;SDS011;36525;49.398;7.614;2023-02-23T04:25:39;179.85;;;42.03;;
50569;SDS011;36525;49.398;7.614;2023-02-23T04:28:06;359.73;;;60.67;;
50569;SDS011;36525;49.398;7.614;2023-02-23T04:30:32;376.17;;;59.20;;
50569;SDS011;36525;49.398;7.614;2023-02-23T04:32:59;382.55;;;67.95;;
50569;SDS011;36525;49.398;7.614;2023-02-23T04:35:27;141.00;;;40.47;;
50569;SDS011;36525;49.398;7.614;2023-02-23T04:37:56;189.00;;;43.08;;
50569;SDS011;36525;49.398;7.614;2023-02-23T04:40:24;372.27;;;60.60;;
50569;SDS011;36525;49.398;7.614;2023-02-23T04:42:52;359.60;;;63.92;;
50569;SDS011;36525;49.398;7.614;2023-02-23T04:45:21;117.88;;;37.70;;
50569;SDS011;36525;49.398;7.614;2023-02-23T04:47:49;179.90;;;46.08;;
50569;SDS011;36525;49.398;7.614;2023-02-23T04:50:17;170.55;;;46.10;;
50569;SDS011;36525;49.398;7.614;2023-02-23T04:52:45;84.40;;;35.63;;
50569;SDS011;36525;49.398;7.614;2023-02-23T04:55:15;68.50;;;35.08;;
50569;SDS011;36525;49.398;7.614;2023-02-23T04:57:45;62.33;;;35.35;;
50569;SDS011;36525;49.398;7.614;2023-02-23T05:00:12;66.57;;;36.05;;
50569;SDS011;36525;49.398;7.614;2023-02-23T05:02:40;71.43;;;36.55;;
50569;SDS011;36525;49.398;7.614;2023-02-23T05:05:08;57.33;;;34.25;;
50569;SDS011;36525;49.398;7.614;2023-02-23T05:07:35;56.25;;;35.03;;
50569;SDS011;36525;49.398;7.614;2023-02-23T05:10:03;52.67;;;32.28;;
50569;SDS011;36525;49.398;7.614;2023-02-23T05:12:32;58.72;;;33.05;;
50569;SDS011;36525;49.398;7.614;2023-02-23T05:14:58;48.03;;;30.85;;
50569;SDS011;36525;49.398;7.614;2023-02-23T05:17:25;54.85;;;32.92;;
50569;SDS011;36525;49.398;7.614;2023-02-23T05:19:52;58.17;;;32.47;;
50569;SDS011;36525;49.398;7.614;2023-02-23T05:22:19;57.45;;;32.22;;
50569;SDS011;36525;49.398;7.614;2023-02-23T05:24:47;51.50;;;32.65;;
50569;SDS011;36525;49.398;7.614;2023-02-23T05:27:14;45.25;;;29.73;;
50569;SDS011;36525;49.398;7.614;2023-02-23T05:29:43;39.58;;;26.63;;
50569;SDS011;36525;49.398;7.614;2023-02-23T05:32:10;43.25;;;27.30;;
50569;SDS011;36525;49.398;7.614;2023-02-23T05:34:37;45.00;;;30.27;;
50569;SDS011;36525;49.398;7.614;2023-02-23T05:37:04;49.67;;;31.88;;
50569;SDS011;36525;49.398;7.614;2023-02-23T05:39:31;56.92;;;32.70;;
50569;SDS011;36525;49.398;7.614;2023-02-23T05:41:58;57.25;;;31.85;;
50569;SDS011;36525;49.398;7.614;2023-02-23T05:44:26;43.55;;;28.95;;
50569;SDS011;36525;49.398;7.614;2023-02-23T05:46:53;42.70;;;29.25;;
50569;SDS011;36525;49.398;7.614;2023-02-23T05:49:20;59.83;;;35.78;;
50569;SDS011;36525;49.398;7.614;2023-02-23T05:51:47;56.45;;;33.05;;
50569;SDS011;36525;49.398;7.614;2023-02-23T05:54:14;61.47;;;35.15;;
50569;SDS011;36525;49.398;7.614;2023-02-23T05:56:41;61.08;;;35.15;;
50569;SDS011;36525;49.398;7.614;2023-02-23T05:59:08;49.45;;;32.60;;
50569;SDS011;36525;49.398;7.614;2023-02-23T06:01:35;63.65;;;35.60;;
50569;SDS011;36525;49.398;7.614;2023-02-23T06:04:03;64.50;;;36.95;;
50569;SDS011;36525;49.398;7.614;2023-02-23T06:06:31;58.08;;;33.75;;
50569;SDS011;36525;49.398;7.614;2023-02-23T06:08:58;56.30;;;33.15;;
50569;SDS011;36525;49.398;7.614;2023-02-23T06:11:25;56.92;;;32.58;;
50569;SDS011;36525;49.398;7.614;2023-02-23T06:13:52;56.95;;;34.15;;
50569;SDS011;36525;49.398;7.614;2023-02-23T06:16:19;60.83;;;35.05;;
50569;SDS011;36525;49.398;7.614;2023-02-23T06:18:47;52.63;;;33.83;;
50569;SDS011;36525;49.398;7.614;2023-02-23T06:21:14;59.47;;;34.58;;
50569;SDS011;36525;49.398;7.614;2023-02-23T06:23:41;49.25;;;31.50;;
50569;SDS011;36525;49.398;7.614;2023-02-23T06:26:08;59.38;;;35.17;;
50569;SDS011;36525;49.398;7.614;2023-02-23T06:28:35;56.65;;;34.00;;
50569;SDS011;36525;49.398;7.614;2023-02-23T06:31:02;79.70;;;40.60;;
50569;SDS011;36525;49.398;7.614;2023-02-23T06:33:29;69.15;;;37.42;;
50569;SDS011;36525;49.398;7.614;2023-02-23T06:35:56;48.90;;;30.42;;
50569;SDS011;36525;49.398;7.614;2023-02-23T06:38:23;39.53;;;27.02;;
50569;SDS011;36525;49.398;7.614;2023-02-23T06:40:50;48.10;;;30.70;;
50569;SDS011;36525;49.398;7.614;2023-02-23T06:43:17;43.25;;;28.73;;
50569;SDS011;36525;49.398;7.614;2023-02-23T06:45:49;57.72;;;29.33;;
50569;SDS011;36525;49.398;7.614;2023-02-23T06:48:16;50.08;;;29.92;;
50569;SDS011;36525;49.398;7.614;2023-02-23T06:50:43;56.42;;;32.13;;
50569;SDS011;36525;49.398;7.614;2023-02-23T06:53:10;63.80;;;35.92;;
50569;SDS011;36525;49.398;7.614;2023-02-23T06:55:37;54.80;;;30.40;;
50569;SDS011;36525;49.398;7.614;2023-02-23T06:58:04;56.00;;;31.65;;
50569;SDS011;36525;49.398;7.614;2023-02-23T07:00:33;78.78;;;42.75;;
50569;SDS011;36525;49.398;7.614;2023-02-23T07:03:00;60.20;;;36.47;;
50569;SDS011;36525;49.398;7.614;2023-02-23T07:05:27;61.08;;;36.00;;
50569;SDS011;36525;49.398;7.614;2023-02-23T07:07:54;75.53;;;42.47;;
50569;SDS011;36525;49.398;7.614;2023-02-23T07:10:21;71.90;;;40.95;;
50569;SDS011;36525;49.398;7.614;2023-02-23T07:12:48;71.38;;;42.97;;
50569;SDS011;36525;49.398;7.614;2023-02-23T07:15:16;71.57;;;43.70;;
50569;SDS011;36525;49.398;7.614;2023-02-23T07:17:45;77.90;;;46.58;;
50569;SDS011;36525;49.398;7.614;2023-02-23T07:20:14;68.03;;;40.78;;
50569;SDS011;36525;49.398;7.614;2023-02-23T07:22:41;64.28;;;39.50;;
50569;SDS011;36525;49.398;7.614;2023-02-23T07:25:08;61.30;;;37.90;;
50569;SDS011;36525;49.398;7.614;2023-02-23T07:27:36;71.30;;;39.58;;
50569;SDS011;36525;49.398;7.614;2023-02-23T07:30:03;63.58;;;38.00;;
50569;SDS011;36525;49.398;7.614;2023-02-23T07:32:31;62.20;;;37.47;;
50569;SDS011;36525;49.398;7.614;2023-02-23T07:34:58;63.95;;;39.80;;
50569;SDS011;36525;49.398;7.614;2023-02-23T07:37:25;57.50;;;37.70;;
50569;SDS011;36525;49.398;7.614;2023-02-23T07:39:52;52.40;;;34.90;;
50569;SDS011;36525;49.398;7.614;2023-02-23T07:42:19;61.17;;;36.10;;
50569;SDS011;36525;49.398;7.614;2023-02-23T07:44:46;64.93;;;38.70;;
50569;SDS011;36525;49.398;7.614;2023-02-23T07:47:13;64.65;;;41.05;;
50569;SDS011;36525;49.398;7.614;2023-02-23T07:49:40;62.95;;;38.25;;
50569;SDS011;36525;49.398;7.614;2023-02-23T07:52:07;62.28;;;39.00;;
50569;SDS011;36525;49.398;7.614;2023-02-23T07:54:35;60.13;;;39.42;;
50569;SDS011;36525;49.398;7.614;2023-02-23T07:57:02;61.05;;;41.47;;
50569;SDS011;36525;49.398;7.614;2023-02-23T07:59:29;59.97;;;42.45;;
50569;SDS011;36525;49.398;7.614;2023-02-23T08:01:57;59.47;;;42.42;;
50569;SDS011;36525;49.398;7.614;2023-02-23T08:04:24;52.80;;;39.20;;
50569;SDS011;36525;49.398;7.614;2023-02-23T08:06:51;50.22;;;37.38;;
50569;SDS011;36525;49.398;7.614;2023-02-23T08:09:18;45.13;;;34.75;;
50569;SDS011;36525;49.398;7.614;2023-02-23T08:11:45;50.75;;;35.60;;
50569;SDS011;36525;49.398;7.614;2023-02-23T08:14:12;50.03;;;35.72;;
50569;SDS011;36525;49.398;7.614;2023-02-23T08:16:39;42.47;;;30.70;;
50569;SDS011;36525;49.398;7.614;2023-02-23T08:19:06;42.15;;;29.50;;
50569;SDS011;36525;49.398;7.614;2023-02-23T08:21:33;32.83;;;23.95;;
50569;SDS011;36525;49.398;7.614;2023-02-23T08:24:00;35.05;;;25.65;;
50569;SDS011;36525;49.398;7.614;2023-02-23T08:26:27;34.88;;;25.05;;
50569;SDS011;36525;49.398;7.614;2023-02-23T08:28:54;35.05;;;23.95;;
50569;SDS011;36525;49.398;7.614;2023-02-23T08:31:21;37.00;;;25.65;;
50569;SDS011;36525;49.398;7.614;2023-02-23T08:33:50;45.45;;;31.38;;
50569;SDS011;36525;49.398;7.614;2023-02-23T08:36:18;33.35;;;25.10;;
50569;SDS011;36525;49.398;7.614;2023-02-23T08:38:46;38.55;;;27.95;;
50569;SDS011;36525;49.398;7.614;2023-02-23T08:41:14;34.00;;;25.15;;
50569;SDS011;36525;49.398;7.614;2023-02-23T08:43:42;37.83;;;26.75;;
50569;SDS011;36525;49.398;7.614;2023-02-23T08:46:09;38.70;;;27.55;;
50569;SDS011;36525;49.398;7.614;2023-02-23T08:48:37;40.20;;;30.83;;
50569;SDS011;36525;49.398;7.614;2023-02-23T08:51:06;48.22;;;33.95;;
50569;SDS011;36525;49.398;7.614;2023-02-23T08:53:34;100.78;;;66.85;;
50569;SDS011;36525;49.398;7.614;2023-02-23T08:56:02;57.75;;;36.88;;
50569;SDS011;36525;49.398;7.614;2023-02-23T08:58:33;52.33;;;36.60;;
50569;SDS011;36525;49.398;7.614;2023-02-23T09:01:02;46.50;;;35.70;;
50569;SDS011;36525;49.398;7.614;2023-02-23T09:03:30;48.70;;;35.83;;
50569;SDS011;36525;49.398;7.614;2023-02-23T09:06:05;46.55;;;37.05;;
50569;SDS011;36525;49.398;7.614;2023-02-23T09:08:39;50.45;;;39.20;;
50569;SDS011;36525;49.398;7.614;2023-02-23T09:11:07;46.13;;;36.53;;
50569;SDS011;36525;49.398;7.614;2023-02-23T09:13:34;49.20;;;37.75;;
50569;SDS011;36525;49.398;7.614;2023-02-23T09:16:01;46.50;;;35.58;;
50569;SDS011;36525;49.398;7.614;2023-02-23T09:18:29;48.58;;;38.28;;
50569;SDS011;36525;49.398;7.614;2023-02-23T09:20:58;46.67;;;34.47;;
50569;SDS011;36525;49.398;7.614;2023-02-23T09:23:28;43.22;;;34.88;;
50569;SDS011;36525;49.398;7.614;2023-02-23T09:25:55;45.08;;;35.30;;
50569;SDS011;36525;49.398;7.614;2023-02-23T09:28:22;42.53;;;32.70;;
50569;SDS011;36525;49.398;7.614;2023-02-23T09:30:49;41.75;;;33.13;;
50569;SDS011;36525;49.398;7.614;2023-02-23T09:33:16;42.92;;;33.50;;
50569;SDS011;36525;49.398;7.614;2023-02-23T09:35:43;46.17;;;34.83;;
50569;SDS011;36525;49.398;7.614;2023-02-23T09:38:10;44.63;;;34.90;;
50569;SDS011;36525;49.398;7.614;2023-02-23T09:40:47;41.47;;;34.75;;
50569;SDS011;36525;49.398;7.614;2023-02-23T09:45:55;43.47;;;35.05;;
50569;SDS011;36525;49.398;7.614;2023-02-23T09:48:46;48.53;;;37.15;;
50569;SDS011;36525;49.398;7.614;2023-02-23T09:51:14;44.30;;;35.50;;
50569;SDS011;36525;49.398;7.614;2023-02-23T09:56:22;41.55;;;34.60;;
50569;SDS011;36525;49.398;7.614;2023-02-23T09:58:57;42.85;;;34.83;;
50569;SDS011;36525;49.398;7.614;2023-02-23T10:04:25;43.55;;;33.97;;
50569;SDS011;36525;49.398;7.614;2023-02-23T10:07:04;41.15;;;34.17;;
50569;SDS011;36525;49.398;7.614;2023-02-23T10:19:25;42.60;;;33.22;;
50569;SDS011;36525;49.398;7.614;2023-02-23T10:22:03;38.20;;;31.42;;
50569;SDS011;36525;49.398;7.614;2023-02-23T10:24:36;37.50;;;31.52;;
50569;SDS011;36525;49.398;7.614;2023-02-23T10:27:11;36.47;;;29.80;;
50569;SDS011;36525;49.398;7.614;2023-02-23T10:29:53;38.47;;;31.58;;
50569;SDS011;36525;49.398;7.614;2023-02-23T10:32:28;38.25;;;31.92;;
50569;SDS011;36525;49.398;7.614;2023-02-23T10:35:21;40.15;;;29.63;;
50569;SDS011;36525;49.398;7.614;2023-02-23T10:37:50;34.70;;;27.85;;
50569;SDS011;36525;49.398;7.614;2023-02-23T10:40:19;32.80;;;27.33;;
50569;SDS011;36525;49.398;7.614;2023-02-23T10:42:54;34.63;;;29.23;;
50569;SDS011;36525;49.398;7.614;2023-02-23T10:45:24;34.53;;;28.73;;
50569;SDS011;36525;49.398;7.614;2023-02-23T10:50:36;35.55;;;28.13;;
50569;SDS011;36525;49.398;7.614;2023-02-23T10:53:17;31.00;;;26.70;;
50569;SDS011;36525;49.398;7.614;2023-02-23T10:58:54;33.50;;;27.30;;
50569;SDS011;36525;49.398;7.614;2023-02-23T11:01:32;31.15;;;26.35;;
50569;SDS011;36525;49.398;7.614;2023-02-23T11:04:30;36.00;;;28.25;;
50569;SDS011;36525;49.398;7.614;2023-02-23T11:07:07;30.73;;;24.63;;
50569;SDS011;36525;49.398;7.614;2023-02-23T11:09:49;33.92;;;26.63;;
50569;SDS011;36525;49.398;7.614;2023-02-23T11:12:22;29.58;;;24.65;;
50569;SDS011;36525;49.398;7.614;2023-02-23T11:14:52;31.73;;;26.67;;
50569;SDS011;36525;49.398;7.614;2023-02-23T11:20:04;33.92;;;26.85;;
50569;SDS011;36525;49.398;7.614;2023-02-23T11:22:43;32.85;;;25.17;;
50569;SDS011;36525;49.398;7.614;2023-02-23T11:25:15;34.63;;;26.77;;
50569;SDS011;36525;49.398;7.614;2023-02-23T11:27:53;33.92;;;26.80;;
50569;SDS011;36525;49.398;7.614;2023-02-23T11:30:23;34.15;;;28.05;;
50569;SDS011;36525;49.398;7.614;2023-02-23T11:33:02;33.58;;;26.98;;
50569;SDS011;36525;49.398;7.614;2023-02-23T11:35:36;37.53;;;29.08;;
50569;SDS011;36525;49.398;7.614;2023-02-23T11:38:13;43.70;;;30.05;;
50569;SDS011;36525;49.398;7.614;2023-02-23T11:43:32;43.45;;;31.60;;
50569;SDS011;36525;49.398;7.614;2023-02-23T11:46:01;38.35;;;30.08;;
50569;SDS011;36525;49.398;7.614;2023-02-23T11:48:33;43.10;;;30.27;;
50569;SDS011;36525;49.398;7.614;2023-02-23T11:51:27;41.63;;;32.78;;
50569;SDS011;36525;49.398;7.614;2023-02-23T11:54:04;44.15;;;32.55;;
50569;SDS011;36525;49.398;7.614;2023-02-23T11:56:35;42.63;;;30.70;;
50569;SDS011;36525;49.398;7.614;2023-02-23T11:59:03;46.13;;;33.45;;
50569;SDS011;36525;49.398;7.614;2023-02-23T12:04:26;41.88;;;32.63;;
50569;SDS011;36525;49.398;7.614;2023-02-23T12:07:22;41.03;;;31.40;;
50569;SDS011;36525;49.398;7.614;2023-02-23T12:10:09;43.50;;;31.00;;
50569;SDS011;36525;49.398;7.614;2023-02-23T12:12:57;44.67;;;31.73;;
50569;SDS011;36525;49.398;7.614;2023-02-23T12:16:01;40.92;;;30.75;;
50569;SDS011;36525;49.398;7.614;2023-02-23T12:21:52;39.58;;;29.33;;
50569;SDS011;36525;49.398;7.614;2023-02-23T12:24:42;33.70;;;26.65;;
50569;SDS011;36525;49.398;7.614;2023-02-23T12:27:24;29.73;;;22.23;;
50569;SDS011;36525;49.398;7.614;2023-02-23T12:33:19;27.08;;;19.67;;
50569;SDS011;36525;49.398;7.614;2023-02-23T12:36:00;23.95;;;18.63;;
50569;SDS011;36525;49.398;7.614;2023-02-23T12:38:46;27.23;;;19.05;;
50569;SDS011;36525;49.398;7.614;2023-02-23T12:44:51;25.33;;;19.52;;
50569;SDS011;36525;49.398;7.614;2023-02-23T12:53:03;20.67;;;17.15;;
50569;SDS011;36525;49.398;7.614;2023-02-23T12:58:56;27.55;;;18.00;;
50569;SDS011;36525;49.398;7.614;2023-02-23T13:01:34;23.83;;;18.17;;
50569;SDS011;36525;49.398;7.614;2023-02-23T13:09:59;26.85;;;18.35;;
50569;SDS011;36525;49.398;7.614;2023-02-23T13:21:03;22.75;;;15.38;;
50569;SDS011;36525;49.398;7.614;2023-02-23T13:23:45;23.70;;;16.23;;
50569;SDS011;36525;49.398;7.614;2023-02-23T13:29:05;21.20;;;14.73;;
50569;SDS011;36525;49.398;7.614;2023-02-23T13:31:49;22.00;;;15.05;;
50569;SDS011;36525;49.398;7.614;2023-02-23T13:34:23;16.10;;;13.48;;
50569;SDS011;36525;49.398;7.614;2023-02-23T13:37:09;21.70;;;13.70;;
50569;SDS011;36525;49.398;7.614;2023-02-23T13:39:43;20.35;;;15.30;;
50569;SDS011;36525;49.398;7.614;2023-02-23T13:45:00;18.63;;;13.95;;
50569;SDS011;36525;49.398;7.614;2023-02-23T13:47:52;18.27;;;13.57;;
50569;SDS011;36525;49.398;7.614;2023-02-23T13:50:50;17.48;;;12.73;;
50569;SDS011;36525;49.398;7.614;2023-02-23T13:58:44;17.08;;;12.13;;
50569;SDS011;36525;49.398;7.614;2023-02-23T14:01:26;16.67;;;12.05;;
50569;SDS011;36525;49.398;7.614;2023-02-23T14:04:02;16.63;;;10.85;;
50569;SDS011;36525;49.398;7.614;2023-02-23T14:06:38;17.85;;;12.00;;
50569;SDS011;36525;49.398;7.614;2023-02-23T14:09:52;17.45;;;11.77;;
50569;SDS011;36525;49.398;7.614;2023-02-23T14:12:34;16.15;;;10.95;;
50569;SDS011;36525;49.398;7.614;2023-02-23T14:17:54;13.07;;;10.65;;
50569;SDS011;36525;49.398;7.614;2023-02-23T14:21:00;21.40;;;15.75;;
50569;SDS011;36525;49.398;7.614;2023-02-23T14:26:41;16.33;;;10.40;;
50569;SDS011;36525;49.398;7.614;2023-02-23T14:40:16;18.45;;;13.27;;
50569;SDS011;36525;49.398;7.614;2023-02-23T14:43:00;19.90;;;13.80;;
50569;SDS011;36525;49.398;7.614;2023-02-23T14:45:30;18.10;;;13.40;;
50569;SDS011;36525;49.398;7.614;2023-02-23T14:48:06;20.65;;;14.35;;
50569;SDS011;36525;49.398;7.614;2023-02-23T14:50:42;18.58;;;12.93;;
50569;SDS011;36525;49.398;7.614;2023-02-23T14:53:19;19.83;;;13.23;;
50569;SDS011;36525;49.398;7.614;2023-02-23T14:55:48;18.55;;;12.88;;
50569;SDS011;36525;49.398;7.614;2023-02-23T14:58:22;22.73;;;15.30;;
50569;SDS011;36525;49.398;7.614;2023-02-23T15:00:53;18.95;;;13.43;;
50569;SDS011;36525;49.398;7.614;2023-02-23T15:03:20;18.58;;;13.15;;
50569;SDS011;36525;49.398;7.614;2023-02-23T15:08:19;19.52;;;14.85;;
50569;SDS011;36525;49.398;7.614;2023-02-23T15:10:51;21.05;;;14.52;;
50569;SDS011;36525;49.398;7.614;2023-02-23T15:16:03;18.63;;;12.30;;
50569;SDS011;36525;49.398;7.614;2023-02-23T15:18:52;19.90;;;13.77;;
50569;SDS011;36525;49.398;7.614;2023-02-23T15:21:20;16.60;;;11.23;;
50569;SDS011;36525;49.398;7.614;2023-02-23T15:24:11;15.80;;;11.43;;
50569;SDS011;36525;49.398;7.614;2023-02-23T15:26:39;15.57;;;10.85;;
50569;SDS011;36525;49.398;7.614;2023-02-23T15:31:40;16.38;;;10.27;;
50569;SDS011;36525;49.398;7.614;2023-02-23T15:34:19;14.57;;;11.57;;
50569;SDS011;36525;49.398;7.614;2023-02-23T15:39:34;18.80;;;12.48;;
50569;SDS011;36525;49.398;7.614;2023-02-23T15:42:16;20.88;;;13.07;;
50569;SDS011;36525;49.398;7.614;2023-02-23T15:44:54;18.65;;;12.77;;
50569;SDS011;36525;49.398;7.614;2023-02-23T15:47:25;18.50;;;13.48;;
50569;SDS011;36525;49.398;7.614;2023-02-23T15:49:59;18.23;;;12.40;;
50569;SDS011;36525;49.398;7.614;2023-02-23T15:52:33;16.55;;;11.57;;
50569;SDS011;36525;49.398;7.614;2023-02-23T15:55:08;16.07;;;11.47;;
50569;SDS011;36525;49.398;7.614;2023-02-23T15:57:46;18.88;;;12.32;;
50569;SDS011;36525;49.398;7.614;2023-02-23T16:00:29;15.43;;;11.88;;
50569;SDS011;36525;49.398;7.614;2023-02-23T16:03:02;16.58;;;11.02;;
50569;SDS011;36525;49.398;7.614;2023-02-23T16:05:33;17.60;;;11.63;;
50569;SDS011;36525;49.398;7.614;2023-02-23T16:08:19;21.13;;;12.75;;
50569;SDS011;36525;49.398;7.614;2023-02-23T16:10:51;16.42;;;11.65;;
50569;SDS011;36525;49.398;7.614;2023-02-23T16:13:41;15.77;;;11.13;;
50569;SDS011;36525;49.398;7.614;2023-02-23T16:16:11;14.85;;;10.85;;
50569;SDS011;36525;49.398;7.614;2023-02-23T16:18:46;14.60;;;10.07;;
50569;SDS011;36525;49.398;7.614;2023-02-23T16:21:27;15.10;;;9.73;;
50569;SDS011;36525;49.398;7.614;2023-02-23T16:23:58;16.75;;;10.10;;
50569;SDS011;36525;49.398;7.614;2023-02-23T16:26:40;14.52;;;10.02;;
50569;SDS011;36525;49.398;7.614;2023-02-23T16:29:45;13.73;;;10.13;;
50569;SDS011;36525;49.398;7.614;2023-02-23T16:32:19;15.82;;;10.98;;
50569;SDS011;36525;49.398;7.614;2023-02-23T16:34:58;15.27;;;9.55;;
50569;SDS011;36525;49.398;7.614;2023-02-23T16:37:33;14.30;;;9.15;;
50569;SDS011;36525;49.398;7.614;2023-02-23T16:40:27;14.50;;;9.00;;
50569;SDS011;36525;49.398;7.614;2023-02-23T16:42:54;12.82;;;8.15;;
50569;SDS011;36525;49.398;7.614;2023-02-23T16:45:25;10.98;;;7.18;;
50569;SDS011;36525;49.398;7.614;2023-02-23T16:47:52;11.98;;;7.38;;
50569;SDS011;36525;49.398;7.614;2023-02-23T16:50:22;10.25;;;6.95;;
50569;SDS011;36525;49.398;7.614;2023-02-23T16:52:51;10.15;;;6.80;;
50569;SDS011;36525;49.398;7.614;2023-02-23T16:55:26;11.57;;;7.50;;
50569;SDS011;36525;49.398;7.614;2023-02-23T16:57:58;16.75;;;11.40;;
50569;SDS011;36525;49.398;7.614;2023-02-23T17:00:29;17.27;;;11.05;;
50569;SDS011;36525;49.398;7.614;2023-02-23T17:02:58;15.75;;;11.88;;
50569;SDS011;36525;49.398;7.614;2023-02-23T17:05:27;11.32;;;6.68;;
50569;SDS011;36525;49.398;7.614;2023-02-23T17:07:54;9.48;;;6.10;;
50569;SDS011;36525;49.398;7.614;2023-02-23T17:10:24;10.68;;;6.68;;
50569;SDS011;36525;49.398;7.614;2023-02-23T17:12:59;13.93;;;6.80;;